Holesov, Czech Republic
Current Conditions -  °F | °C
As of 11:00 PM on Thursday 20 Nov 2014 (Local Time) from LKMT Reporting Station
Drizzle Drizzle  
Wind Chill: 39°   Ceiling: 600
Heat Index: 39°   Visibility: 3mi
Dew Point: 37°   Wind: 3mph
Humidity: 93%   Direction: 20°NNE
Pressure: 30.3"   Gusts: NA
Location:  49.34°N, 17.58°E
Report Text: LKMT 202100Z 02003KT 5000 -DZ BR OVC006 04/03 Q1026 NOSIG
Loading
Personal Weather Stations






























Interactive Weather Map New forecast layout! Learn more

10-Day Weather Forecast

Advertisements
Track Severe Weather on mobile